Архив погоды в Калининграде

Метеограмма Калининград
Пятница, 24 Мая
Время местн. Темп Ветер Видим Явления Облачность нижн/средн/верх Атм. давл. Влжн Точка росы ВНГО R Сост. почвы Tg s
Напр Скр Прв ур.ст ур.м изм
11:00 +18.6° С,С-З 1 3 10 км - переменная облачность 759 761 -0.1 52% +8.6° более 2.5 км - - - -
08:00 +14.6° З,С-З 1 2 10 км - преимущественно облачно 759 761 0 69% +9° 2 км 0 Сухая (без трещин) - -
05:00 +11° З 1 2 4 км дымка облачно 759 761 -0.2 87% +9° 1.5 км - - - -
02:00 +10.9° З,С-З 1 2 4 км дымка облачно 759 761 -0.2 85% +8.5° 1.5 км - - - -
Четверг, 23 Мая
Время местн. Темп Ветер Видим Явления Облачность нижн/средн/верх Атм. давл. Влжн Точка росы ВНГО R Сост. почвы Tg s
Напр Скр Прв ур.ст ур.м изм
23:00 +10.8° З,С-З 2 4 4 км дымка облачно 759 761 0 87% +8.7° 600 м - - - -
20:00 +11.5° З,С-З 2 4 4 км дымка облачно 759 761 +0.5 87% +9.4° 600 м 0 - - -
17:00 +12.7° З 2 5 4 км дымка облачно 759 761 +0.6 86% +10.4° 300 м - - - -
14:00 +15.9° З 2 5 4 км - облачно 758 760 +0.2 79% +12.3° 600 м - - - -
11:00 +15.1° З,С-З 1 4 4 км дымка облачно 758 760 +0.8 86% +12.7° 300 м - - - -
08:00 +13° З 1 3 4 км дымка облачно 757 759 +0.9 94% +12.1° 300 м 0 Сухая (без трещин) - -
05:00 +12.7° З 1 2 4 км дымка переменная облачность 756 758 +0.5 93% +11.6° более 2.5 км - - - -
02:00 +12.5° штиль 0 1 4 км дымка ясно 756 758 -0.1 94% +11.5° более 2.5 км - - - -
Среда, 22 Мая
Время местн. Темп Ветер Видим Явления Облачность нижн/средн/верх Атм. давл. Влжн Точка росы ВНГО R Сост. почвы Tg s
Напр Скр Прв ур.ст ур.м изм
23:00 +15.3° штиль 0 1 4 км дымка переменная облачность 756 758 +0.8 85% +12.8° - - - - -
20:00 +18.3° С,С-В 1 3 10 км - облачно с прояснениями 755 757 +0.4 79% +14.5° 1.5 км 0 - - -
17:00 +23.1° В 1 3 10 км - облачно с прояснениями 755 756 +0.2 46% +11° 1.5 км - - - -
14:00 +23° В,Ю-В 2 4 10 км - переменная облачность 754 756 0 53% +13° 1.5 км - - - -
11:00 +20.2° В 2 4 10 км - переменная облачность 754 756 +0.2 69% +14.3° 1.5 км - - - -
08:00 +16.9° Ю-В 2 3 10 км - облачно с прояснениями 754 756 +0.5 81% +13.7° 1.5 км 0 Влажная (без луж) - -
05:00 +14.3° В,Ю-В 1 1 4 км дымка ясно 754 756 +0.4 87% +12.2° более 2.5 км - - - -
02:00 +16.1° В,С-В 1 3 4 км дымка ясно 753 755 -0.1 86% +13.7° более 2.5 км - - - -
Вторник, 21 Мая
Время местн. Темп Ветер Видим Явления Облачность нижн/средн/верх Атм. давл. Влжн Точка росы ВНГО R Сост. почвы Tg s
Напр Скр Прв ур.ст ур.м изм
23:00 +16.9° С,С-В 1 1 4 км дымка ясно 753 755 +0.5 87% +14.7° более 2.5 км - - - -
20:00 +20.8° С-В 1 3 10 км небо без изменений {гроза} переменная облачность 753 755 -0.2 70% +15.2° - 0 - - -
17:00 +25.3° В 2 5 10 км слабая или умеренная гроза с осадками переменная облачность 753 755 -0.6 55% +15.6° 1.5 км - - - -
14:00 +23.8° В 3 6 10 км - облачно с прояснениями 754 756 -0.7 63% +16.3° 1.5 км - - - -
11:00 +20.1° В 2 4 10 км - облачно с прояснениями 754 756 0 78% +16.2° - - - - -
08:00 +18.4° В,Ю-В 2 3 10 км - переменная облачность 754 756 +0.2 83% +15.4° 1.5 км 5 Влажная (без луж) - -